首页
METAR-TAF:

METAR-TAF

机场 :

Pitt-Greenville Airport

格林维尔, 北卡罗来纳州, 美国

纬度: 35-38N, 经度: 077-24W, 海拔: 8米

当前天气观测

该预报发布于34分钟前的01:05 UTC
静风
温度 9°C
湿度 100%
气压 1020 hPa
能見度: 16.1公里
天空无云

METAR: KPGV 240105Z AUTO 00000KT 10SM CLR 09/09 A3011 RMK AO2

时间: 21:39 (01:39 UTC)

预报

该预报发布于1小时和51分钟前的23:48 UTC
预报有效从24日的 00点(UTC)到 24日的 24点(UTC)
风速3节,风向多变
能見度: 10公里
少量云层高于25000英尺
从 24日的 0700点(UTC)
风速5节,风向北转西北
能見度: 10公里
天空无云
从 24日的 1300点(UTC)
风速7节,风向,有时为15节阵风
能見度: 10公里
天空无云
从 24日的 1700点(UTC)
风速6节,风向
能見度: 10公里
天空无云

TAF: KPGV 232348Z 2400/2424 VRB03KT P6SM FEW250 FM240700 34005KT P6SM SKC FM241300 01007G15KT P6SM SKC FM241700 36006KT P6SM SKC AMD LTD TO CLD VIS AND WIND

超过4000个机场的气象观测和天气预报(METAR&TAF报告)。

可查询的气象台以黄色和红色小点在地图上表示。

将鼠标移到小点上方,可查看气象台名称。

然后点击查看天气观测和预报。

如需切换地图:点击带黑十字的绿色按钮放大地图;点击带横线的绿色按钮缩小地图;或者点击绿色箭头查看邻近地区的地图。


METAR-TAF: